Time;durP1;ratioP1;P1;durP2;ratioP2;P2;SDS_P1;SDS_P2;PMS_P1;PMS_P2;Temp;Humidity;BMP_temperature;BMP_pressure;BME280_temperature;BME280_humidity;BME280_pressure;Samples;Min_cycle;Max_cycle;Signal;HPM_P1;HPM_P2
2023/03/25 00:00:25;;;;;;;0.50;0.50;;;;;;;;;;7428106;19;20158;-94
2023/03/25 00:02:51;;;;;;;0.30;0.30;;;;;;;;;;7429203;19;20141;-94
2023/03/25 00:05:20;;;;;;;0.70;0.40;;;;;;;;;;7432306;19;20161;-94
2023/03/25 00:07:50;;;;;;;0.30;0.30;;;;;;;;;;7428987;19;20137;-94
2023/03/25 00:10:16;;;;;;;0.40;0.40;;;;;;;;;;7429052;19;20149;-94
2023/03/25 00:12:43;;;;;;;0.30;0.30;;;;;;;;;;7428678;19;20129;-95
2023/03/25 00:15:12;;;;;;;0.30;0.30;;;;;;;;;;7426497;19;20137;-96
2023/03/25 00:17:48;;;;;;;0.30;0.30;;;;;;;;;;7426782;19;20129;-96
2023/03/25 00:25:59;;;;;;;0.30;0.30;;;;;;;;;;7431486;19;20168;-96
2023/03/25 00:28:32;;;;;;;0.30;0.30;;;;;;;;;;7429498;19;20147;-96
2023/03/25 00:31:08;;;;;;;0.23;0.23;;;;;;;;;;7430554;19;20147;-96
2023/03/25 00:33:45;;;;;;;0.30;0.30;;;;;;;;;;7431021;19;20165;-96
2023/03/25 00:36:13;;;;;;;0.20;0.20;;;;;;;;;;7428948;19;20146;-95
2023/03/25 00:38:42;;;;;;;0.30;0.30;;;;;;;;;;7427348;19;20169;-96
2023/03/25 00:41:26;;;;;;;0.30;0.30;;;;;;;;;;7427742;19;20157;-96
2023/03/25 00:43:57;;;;;;;0.20;0.20;;;;;;;;;;7429933;19;20164;-96
2023/03/25 00:46:30;;;;;;;0.20;0.20;;;;;;;;;;7428659;19;20160;-96
2023/03/25 00:48:59;;;;;;;0.20;0.20;;;;;;;;;;7430935;19;20144;-96
2023/03/25 00:51:42;;;;;;;0.30;0.30;;;;;;;;;;7431391;19;20136;-95
2023/03/25 00:54:25;;;;;;;0.20;0.20;;;;;;;;;;7429693;19;20147;-96
2023/03/25 00:56:54;;;;;;;0.23;0.23;;;;;;;;;;7430511;19;20133;-96
2023/03/25 00:59:26;;;;;;;0.30;0.30;;;;;;;;;;7429838;19;20141;-96
2023/03/25 01:02:15;;;;;;;0.20;0.20;;;;;;;;;;7428636;19;20174;-96
2023/03/25 01:04:48;;;;;;;0.30;0.30;;;;;;;;;;7433308;19;20139;-96
2023/03/25 01:07:35;;;;;;;0.20;0.20;;;;;;;;;;7429709;19;20141;-96
2023/03/25 01:10:16;;;;;;;0.30;0.30;;;;;;;;;;7430612;19;20132;-96
2023/03/25 01:13:18;;;;;;;0.20;0.20;;;;;;;;;;7430466;19;20193;-96
2023/03/25 01:16:09;;;;;;;0.30;0.30;;;;;;;;;;7432556;19;20152;-96
2023/03/25 01:18:45;;;;;;;0.30;0.30;;;;;;;;;;7429041;19;20148;-96
2023/03/25 01:21:20;;;;;;;0.30;0.30;;;;;;;;;;7431647;19;20361;-95
2023/03/25 01:24:05;;;;;;;0.30;0.30;;;;;;;;;;7428893;19;20203;-96
2023/03/25 01:26:47;;;;;;;0.37;0.37;;;;;;;;;;7433319;19;20136;-96
2023/03/25 01:29:30;;;;;;;0.30;0.30;;;;;;;;;;7430762;19;20164;-95
2023/03/25 01:32:10;;;;;;;0.30;0.30;;;;;;;;;;7429246;19;20149;-96
2023/03/25 01:34:56;;;;;;;0.30;0.30;;;;;;;;;;7429027;19;20165;-96
2023/03/25 01:37:43;;;;;;;0.20;0.20;;;;;;;;;;7431645;19;20141;-95
2023/03/25 01:40:28;;;;;;;0.30;0.30;;;;;;;;;;7435355;19;20120;-96
2023/03/25 03:22:03;;;;;;;0.20;0.20;;;;;;;;;;7436254;19;20157;-96
2023/03/25 03:24:58;;;;;;;0.30;0.30;;;;;;;;;;7439324;19;20146;-96
2023/03/25 03:27:55;;;;;;;0.30;0.30;;;;;;;;;;7431205;19;20150;-96
2023/03/25 03:31:23;;;;;;;0.30;0.30;;;;;;;;;;7436153;19;20144;-96
2023/03/25 03:34:25;;;;;;;0.20;0.20;;;;;;;;;;7434364;19;20177;-96
2023/03/25 03:37:32;;;;;;;0.27;0.27;;;;;;;;;;7432118;19;20148;-96
2023/03/25 03:40:28;;;;;;;0.30;0.30;;;;;;;;;;7440075;19;20118;-96
2023/03/25 03:46:19;;;;;;;0.20;0.20;;;;;;;;;;7427476;19;20189;-96
2023/03/25 03:49:16;;;;;;;0.30;0.30;;;;;;;;;;7431421;19;20261;-96
2023/03/25 03:55:54;;;;;;;0.37;0.37;;;;;;;;;;7436198;19;20159;-96
2023/03/25 03:58:48;;;;;;;0.30;0.30;;;;;;;;;;7438325;19;20120;-95
2023/03/25 08:13:05;;;;;;;0.57;0.57;;;;;;;;;;7426301;19;20181;-96
2023/03/25 08:15:37;;;;;;;0.40;0.40;;;;;;;;;;7425537;19;20140;-96
2023/03/25 08:18:07;;;;;;;0.30;0.30;;;;;;;;;;7425385;19;20156;-96
2023/03/25 08:20:37;;;;;;;0.30;0.30;;;;;;;;;;7427065;19;20144;-96
2023/03/25 08:23:18;;;;;;;0.30;0.30;;;;;;;;;;7427250;19;20180;-95
2023/03/25 08:25:48;;;;;;;0.30;0.30;;;;;;;;;;7430971;19;20149;-96
2023/03/25 08:28:21;;;;;;;0.30;0.30;;;;;;;;;;7426397;19;20144;-96
2023/03/25 08:30:54;;;;;;;0.30;0.30;;;;;;;;;;7429463;19;20161;-96
2023/03/25 08:33:25;;;;;;;0.30;0.30;;;;;;;;;;7428178;19;20141;-95
2023/03/25 08:35:56;;;;;;;0.20;0.20;;;;;;;;;;7427835;19;20145;-95
2023/03/25 08:38:24;;;;;;;0.20;0.20;;;;;;;;;;7427802;19;20148;-96
2023/03/25 08:40:51;;;;;;;2.10;1.27;;;;;;;;;;7429525;19;20125;-96
2023/03/25 08:43:18;;;;;;;0.40;0.40;;;;;;;;;;7422426;19;20537;-94
2023/03/25 08:45:46;;;;;;;0.30;0.30;;;;;;;;;;7420813;19;20140;-94
2023/03/25 08:48:13;;;;;;;0.47;0.47;;;;;;;;;;7423652;19;20129;-96
2023/03/25 09:55:28;;;;;;;0.30;0.30;;;;;;;;;;7409091;19;20249;-92
2023/03/25 09:58:26;;;;;;;0.30;0.30;;;;;;;;;;7419268;19;20141;-89
2023/03/25 10:01:19;;;;;;;0.30;0.30;;;;;;;;;;7425031;19;20137;-90
2023/03/25 10:04:27;;;;;;;0.20;0.20;;;;;;;;;;7423394;19;20136;-91
2023/03/25 10:06:56;;;;;;;0.30;0.30;;;;;;;;;;7419777;19;20147;-91
2023/03/25 10:09:43;;;;;;;0.30;0.30;;;;;;;;;;7406850;19;20188;-91
2023/03/25 10:12:35;;;;;;;0.40;0.40;;;;;;;;;;7415442;19;20152;-91
2023/03/25 10:15:11;;;;;;;0.47;0.37;;;;;;;;;;7416905;19;20144;-92
2023/03/25 10:17:57;;;;;;;0.30;0.30;;;;;;;;;;7414309;19;20149;-91
2023/03/25 10:20:28;;;;;;;0.40;0.40;;;;;;;;;;7397233;19;20610;-91
2023/03/25 10:23:06;;;;;;;0.47;0.47;;;;;;;;;;7417174;19;20147;-90
2023/03/25 10:25:37;;;;;;;0.30;0.30;;;;;;;;;;7417882;19;20181;-91
2023/03/25 10:28:04;;;;;;;0.30;0.30;;;;;;;;;;7426025;19;20137;-90
2023/03/25 10:30:40;;;;;;;0.30;0.30;;;;;;;;;;7427850;19;20125;-90
2023/03/25 10:33:18;;;;;;;0.30;0.30;;;;;;;;;;7391582;19;20148;-89
2023/03/25 10:35:46;;;;;;;0.40;0.40;;;;;;;;;;7384154;19;20132;-89
2023/03/25 10:38:19;;;;;;;0.50;0.50;;;;;;;;;;7388111;19;20154;-89
2023/03/25 10:40:51;;;;;;;0.47;0.47;;;;;;;;;;7388534;19;20164;-89
2023/03/25 10:43:27;;;;;;;0.30;0.30;;;;;;;;;;7389371;19;20129;-88
2023/03/25 10:45:59;;;;;;;0.30;0.30;;;;;;;;;;7390806;19;20168;-89
2023/03/25 10:48:30;;;;;;;0.40;0.40;;;;;;;;;;7392194;19;20169;-88
2023/03/25 10:51:05;;;;;;;0.30;0.30;;;;;;;;;;7388846;19;20542;-89
2023/03/25 10:53:32;;;;;;;0.30;0.30;;;;;;;;;;7398232;19;20625;-88
2023/03/25 10:56:06;;;;;;;0.30;0.30;;;;;;;;;;7395305;19;20524;-89
2023/03/25 10:58:33;;;;;;;0.30;0.30;;;;;;;;;;7387901;19;20187;-89
2023/03/25 11:01:09;;;;;;;0.30;0.30;;;;;;;;;;7384614;19;20187;-88
2023/03/25 11:03:38;;;;;;;0.30;0.30;;;;;;;;;;7419865;19;20148;-95
2023/03/25 11:06:05;;;;;;;0.30;0.30;;;;;;;;;;7420002;19;20141;-94
2023/03/25 11:09:17;;;;;;;0.20;0.20;;;;;;;;;;7419688;19;20168;-96
2023/03/25 11:12:42;;;;;;;;;;;;;;;;;;;;;
2023/03/25 11:29:05;;;;;;;0.30;0.30;;;;;;;;;;7411201;19;20192;-96
2023/03/25 11:35:06;;;;;;;0.30;0.30;;;;;;;;;;7403624;19;20230;-96
2023/03/25 11:37:58;;;;;;;0.83;0.83;;;;;;;;;;7423959;19;20144;-96
2023/03/25 11:41:12;;;;;;;0.40;0.40;;;;;;;;;;7428668;19;20140;-96
2023/03/25 11:43:57;;;;;;;0.30;0.30;;;;;;;;;;7424578;19;20141;-96
2023/03/25 11:47:14;;;;;;;;;;;;;;;;;;;;;
2023/03/25 11:49:48;;;;;;;0.57;0.57;;;;;;;;;;7431497;19;20165;-96
2023/03/25 11:53:08;;;;;;;0.20;0.20;;;;;;;;;;7430581;19;20185;-96
2023/03/25 11:55:44;;;;;;;0.43;0.43;;;;;;;;;;7432003;19;20150;-96
2023/03/25 11:58:39;;;;;;;0.30;0.30;;;;;;;;;;7427817;19;20159;-96
2023/03/25 12:01:55;;;;;;;0.30;0.30;;;;;;;;;;7429078;19;20143;-96
2023/03/25 12:05:11;;;;;;;0.30;0.30;;;;;;;;;;7424992;19;20149;-96
2023/03/25 12:08:09;;;;;;;0.30;0.30;;;;;;;;;;7424391;19;20141;-96
2023/03/25 12:11:15;;;;;;;0.30;0.30;;;;;;;;;;7431219;19;20179;-96
2023/03/25 12:14:19;;;;;;;0.30;0.30;;;;;;;;;;7426756;19;20175;-96
2023/03/25 12:17:05;;;;;;;0.65;0.65;;;;;;;;;;7429301;19;20132;-96
2023/03/25 12:19:52;;;;;;;0.30;0.30;;;;;;;;;;7425687;19;20165;-96
2023/03/25 12:22:54;;;;;;;0.38;0.38;;;;;;;;;;7423763;19;20169;-95
2023/03/25 12:39:12;;;;;;;0.38;0.38;;;;;;;;;;7415939;19;20192;-96
2023/03/25 12:44:47;;;;;;;0.30;0.30;;;;;;;;;;7427636;19;20153;-95
2023/03/25 12:47:20;;;;;;;0.43;0.43;;;;;;;;;;7421387;19;20128;-96
2023/03/25 12:50:09;;;;;;;0.30;0.30;;;;;;;;;;7421185;19;20133;-96
2023/03/25 12:53:03;;;;;;;0.30;0.30;;;;;;;;;;7424510;19;20164;-96
2023/03/25 12:55:46;;;;;;;0.20;0.20;;;;;;;;;;7426443;19;20147;-96
2023/03/25 12:58:28;;;;;;;0.40;0.40;;;;;;;;;;7420807;19;20184;-96
2023/03/25 13:01:03;;;;;;;0.30;0.30;;;;;;;;;;7423512;19;20137;-96
2023/03/25 13:03:43;;;;;;;0.30;0.30;;;;;;;;;;7424205;19;20220;-94
2023/03/25 13:06:57;;;;;;;0.60;0.60;;;;;;;;;;7427649;19;20149;-96
2023/03/25 13:09:46;;;;;;;0.40;0.40;;;;;;;;;;7422648;19;20146;-96
2023/03/25 13:13:08;;;;;;;0.30;0.30;;;;;;;;;;7426214;19;20153;-96
2023/03/25 13:15:41;;;;;;;0.30;0.30;;;;;;;;;;7427969;19;20147;-96
2023/03/25 13:18:17;;;;;;;0.30;0.30;;;;;;;;;;7429110;19;20133;-96
2023/03/25 13:20:51;;;;;;;0.20;0.20;;;;;;;;;;7422457;19;20162;-96
2023/03/25 13:23:20;;;;;;;0.30;0.30;;;;;;;;;;7429382;19;20160;-96
2023/03/25 13:25:56;;;;;;;0.30;0.30;;;;;;;;;;7428924;19;21600;-95
2023/03/25 13:28:46;;;;;;;0.30;0.30;;;;;;;;;;7424037;19;20153;-95
2023/03/25 13:31:18;;;;;;;0.30;0.30;;;;;;;;;;7424788;19;20148;-95
2023/03/25 13:34:36;;;;;;;0.30;0.30;;;;;;;;;;7427756;19;20168;-96
2023/03/25 13:37:26;;;;;;;0.30;0.30;;;;;;;;;;7425884;19;20153;-96
2023/03/25 13:40:11;;;;;;;0.40;0.40;;;;;;;;;;7427493;19;20147;-96
2023/03/25 13:42:59;;;;;;;0.30;0.30;;;;;;;;;;7424989;19;20173;-93
2023/03/25 13:45:54;;;;;;;0.30;0.30;;;;;;;;;;7427871;19;20144;-94
2023/03/25 13:54:20;;;;;;;0.30;0.30;;;;;;;;;;7400265;19;20561;-93
2023/03/25 14:15:03;;;;;;;0.30;0.30;;;;;;;;;;7404457;19;20534;-91
2023/03/25 14:17:30;;;;;;;0.20;0.20;;;;;;;;;;7402472;19;20157;-91
2023/03/25 14:19:58;;;;;;;0.40;0.40;;;;;;;;;;7418809;19;20200;-93
2023/03/25 14:22:30;;;;;;;0.30;0.30;;;;;;;;;;7427443;19;20133;-93
2023/03/25 14:24:58;;;;;;;0.30;0.30;;;;;;;;;;7404137;19;20137;-92
2023/03/25 14:27:28;;;;;;;0.30;0.30;;;;;;;;;;7411162;19;20161;-92
2023/03/25 14:30:14;;;;;;;0.30;0.30;;;;;;;;;;7412320;19;20185;-92
2023/03/25 14:32:43;;;;;;;0.28;0.28;;;;;;;;;;7409380;19;20129;-92
2023/03/25 14:35:37;;;;;;;0.50;0.50;;;;;;;;;;7414877;19;20158;-93
2023/03/25 14:38:07;;;;;;;0.40;0.40;;;;;;;;;;7401391;19;20180;-91
2023/03/25 14:40:41;;;;;;;0.30;0.30;;;;;;;;;;7401817;19;20566;-91
2023/03/25 14:43:34;;;;;;;0.30;0.30;;;;;;;;;;7397270;19;20209;-90
2023/03/25 14:46:17;;;;;;;0.30;0.30;;;;;;;;;;7396784;19;20137;-92
2023/03/25 14:48:54;;;;;;;0.30;0.30;;;;;;;;;;7401497;19;20153;-91
2023/03/25 14:51:24;;;;;;;0.47;0.47;;;;;;;;;;7401213;19;20161;-92
2023/03/25 14:53:54;;;;;;;0.45;0.45;;;;;;;;;;7389373;19;20489;-93
2023/03/25 14:56:27;;;;;;;0.30;0.30;;;;;;;;;;7394142;19;20141;-93
2023/03/25 14:58:56;;;;;;;0.65;0.60;;;;;;;;;;7400201;19;20175;-93
2023/03/25 15:01:31;;;;;;;0.30;0.30;;;;;;;;;;7402639;19;20160;-92
2023/03/25 15:04:12;;;;;;;0.30;0.30;;;;;;;;;;7402022;19;20514;-93
2023/03/25 15:06:39;;;;;;;0.75;0.35;;;;;;;;;;7402443;19;20149;-92
2023/03/25 15:09:10;;;;;;;0.30;0.30;;;;;;;;;;7399228;19;20173;-93
2023/03/25 15:11:38;;;;;;;0.40;0.40;;;;;;;;;;7401480;19;20165;-92
2023/03/25 15:14:09;;;;;;;0.52;0.52;;;;;;;;;;7408201;19;20133;-92
2023/03/25 15:16:37;;;;;;;0.65;0.60;;;;;;;;;;7407996;19;20152;-92
2023/03/25 15:19:17;;;;;;;0.30;0.30;;;;;;;;;;7411369;19;20173;-93
2023/03/25 15:21:56;;;;;;;0.30;0.30;;;;;;;;;;7411961;19;20184;-93
2023/03/25 15:24:33;;;;;;;0.40;0.40;;;;;;;;;;7410208;19;20149;-93
2023/03/25 15:27:08;;;;;;;0.40;0.40;;;;;;;;;;7408012;19;20141;-94
2023/03/25 15:29:58;;;;;;;0.40;0.40;;;;;;;;;;7404868;19;20160;-93
2023/03/25 15:32:41;;;;;;;0.40;0.40;;;;;;;;;;7404531;19;20145;-93
2023/03/25 15:35:18;;;;;;;0.60;0.60;;;;;;;;;;7414730;19;20588;-94
2023/03/25 15:38:13;;;;;;;0.40;0.40;;;;;;;;;;7426106;19;20145;-94
2023/03/25 15:41:00;;;;;;;0.30;0.30;;;;;;;;;;7423189;19;20158;-95
2023/03/25 15:43:33;;;;;;;0.40;0.40;;;;;;;;;;7430543;19;20167;-95
2023/03/25 15:46:26;;;;;;;0.40;0.40;;;;;;;;;;7430471;19;20125;-95
2023/03/25 15:49:23;;;;;;;3.20;0.60;;;;;;;;;;7426571;19;20145;-95
2023/03/25 15:52:01;;;;;;;0.30;0.30;;;;;;;;;;7429231;19;20169;-94
2023/03/25 15:54:35;;;;;;;0.40;0.40;;;;;;;;;;7425738;19;20172;-95
2023/03/25 15:57:16;;;;;;;0.40;0.40;;;;;;;;;;7417267;19;20136;-94
2023/03/25 15:59:53;;;;;;;0.88;0.88;;;;;;;;;;7420237;19;20165;-90
2023/03/25 16:02:33;;;;;;;0.68;0.68;;;;;;;;;;7424806;19;20141;-90
2023/03/25 16:05:01;;;;;;;0.37;0.37;;;;;;;;;;7426904;19;20148;-89
2023/03/25 16:07:32;;;;;;;0.20;0.20;;;;;;;;;;7424376;19;20160;-90
2023/03/25 16:10:15;;;;;;;0.40;0.40;;;;;;;;;;7416605;19;20161;-89
2023/03/25 16:12:44;;;;;;;0.40;0.40;;;;;;;;;;7426737;19;20133;-88
2023/03/25 16:15:24;;;;;;;0.30;0.30;;;;;;;;;;7428222;19;20121;-88
2023/03/25 16:17:52;;;;;;;0.20;0.20;;;;;;;;;;7418186;19;20485;-91
2023/03/25 16:20:22;;;;;;;0.43;0.43;;;;;;;;;;7397033;19;20536;-92
2023/03/25 16:22:54;;;;;;;0.30;0.30;;;;;;;;;;7398282;19;20133;-93
2023/03/25 16:25:34;;;;;;;0.30;0.30;;;;;;;;;;7402855;19;20192;-96
2023/03/25 16:28:06;;;;;;;0.30;0.30;;;;;;;;;;7422218;19;20157;-96
2023/03/25 16:31:01;;;;;;;0.30;0.30;;;;;;;;;;7433260;19;20169;-96
2023/03/25 16:33:47;;;;;;;0.20;0.20;;;;;;;;;;7434270;19;20169;-96
2023/03/25 16:36:31;;;;;;;0.63;0.63;;;;;;;;;;7432823;19;20141;-96
2023/03/25 16:38:58;;;;;;;0.30;0.30;;;;;;;;;;7427551;19;20140;-95
2023/03/25 16:41:26;;;;;;;0.30;0.30;;;;;;;;;;7429842;19;20137;-94
2023/03/25 16:43:54;;;;;;;0.30;0.30;;;;;;;;;;7426855;19;20173;-96
2023/03/25 16:46:22;;;;;;;0.30;0.30;;;;;;;;;;7418703;19;20129;-96
2023/03/25 16:48:57;;;;;;;0.20;0.20;;;;;;;;;;7424227;19;20129;-96
2023/03/25 16:51:34;;;;;;;0.30;0.30;;;;;;;;;;7421871;19;20144;-96
2023/03/25 16:54:08;;;;;;;0.30;0.30;;;;;;;;;;7415435;19;20200;-96
2023/03/25 16:56:38;;;;;;;0.30;0.30;;;;;;;;;;7403604;19;20141;-96
2023/03/25 16:59:15;;;;;;;0.20;0.20;;;;;;;;;;7416839;19;20117;-96
2023/03/25 17:01:49;;;;;;;0.30;0.30;;;;;;;;;;7426693;19;20140;-97
2023/03/25 17:04:28;;;;;;;0.20;0.20;;;;;;;;;;7419084;19;20432;-94
2023/03/25 17:06:58;;;;;;;0.30;0.30;;;;;;;;;;7415536;19;20134;-95
2023/03/25 17:09:33;;;;;;;0.30;0.30;;;;;;;;;;7423456;19;20128;-96
2023/03/25 17:12:01;;;;;;;0.30;0.30;;;;;;;;;;7419830;19;20125;-96
2023/03/25 17:14:41;;;;;;;0.30;0.30;;;;;;;;;;7419928;19;20230;-96
2023/03/25 17:17:17;;;;;;;0.30;0.30;;;;;;;;;;7413667;19;20125;-96
2023/03/25 17:19:45;;;;;;;0.20;0.20;;;;;;;;;;7421734;19;20133;-96
2023/03/25 17:22:31;;;;;;;0.30;0.30;;;;;;;;;;7421230;19;20169;-96
2023/03/25 17:25:27;;;;;;;0.30;0.30;;;;;;;;;;7425327;19;20129;-96
2023/03/25 19:07:55;;;;;;;0.30;0.30;;;;;;;;;;7403470;19;20535;-91
2023/03/25 19:10:30;;;;;;;0.30;0.30;;;;;;;;;;7392713;19;20187;-91
2023/03/25 19:12:57;;;;;;;0.30;0.30;;;;;;;;;;7388446;19;20140;-90
2023/03/25 19:15:26;;;;;;;0.43;0.43;;;;;;;;;;7394206;19;20121;-89
2023/03/25 19:18:02;;;;;;;0.30;0.30;;;;;;;;;;7398902;19;20601;-89
2023/03/25 19:20:32;;;;;;;0.43;0.30;;;;;;;;;;7392090;19;20144;-90
2023/03/25 19:23:00;;;;;;;0.30;0.30;;;;;;;;;;7388237;19;20138;-90
2023/03/25 19:25:27;;;;;;;0.30;0.30;;;;;;;;;;7397753;19;20137;-90
2023/03/25 19:27:57;;;;;;;0.20;0.20;;;;;;;;;;7392887;19;20586;-90
2023/03/25 19:30:24;;;;;;;0.30;0.30;;;;;;;;;;7384894;19;20195;-90
2023/03/25 19:33:02;;;;;;;0.20;0.20;;;;;;;;;;7384346;19;20161;-91
2023/03/25 19:35:31;;;;;;;0.30;0.30;;;;;;;;;;7380345;19;20161;-91
2023/03/25 19:38:02;;;;;;;0.30;0.30;;;;;;;;;;7387434;19;20157;-92
2023/03/25 19:40:31;;;;;;;0.43;0.43;;;;;;;;;;7412596;19;20190;-88
2023/03/25 19:43:00;;;;;;;0.30;0.30;;;;;;;;;;7427695;19;20133;-87
2023/03/25 19:45:29;;;;;;;0.30;0.30;;;;;;;;;;7428252;19;20141;-88
2023/03/25 19:47:56;;;;;;;0.20;0.20;;;;;;;;;;7421661;19;20121;-85
2023/03/25 19:50:25;;;;;;;0.70;0.70;;;;;;;;;;7421925;19;20161;-88
2023/03/25 19:52:52;;;;;;;0.50;0.50;;;;;;;;;;7412553;19;20173;-89
2023/03/25 19:55:20;;;;;;;0.30;0.30;;;;;;;;;;7397974;19;20125;-90
2023/03/25 19:57:47;;;;;;;0.73;0.73;;;;;;;;;;7396929;19;20250;-90
2023/03/25 20:00:16;;;;;;;0.30;0.30;;;;;;;;;;7388742;19;20173;-88
2023/03/25 20:02:46;;;;;;;0.30;0.30;;;;;;;;;;7387802;19;20141;-90
2023/03/25 20:05:16;;;;;;;0.40;0.40;;;;;;;;;;7390091;19;20212;-89
2023/03/25 20:07:43;;;;;;;0.20;0.20;;;;;;;;;;7384127;19;22035;-90
2023/03/25 20:10:13;;;;;;;0.30;0.30;;;;;;;;;;7386663;19;20180;-88
2023/03/25 20:12:49;;;;;;;0.30;0.30;;;;;;;;;;7390775;19;20170;-89
2023/03/25 20:15:17;;;;;;;0.20;0.20;;;;;;;;;;7387849;19;20171;-89
2023/03/25 20:17:44;;;;;;;0.57;0.57;;;;;;;;;;7391639;19;20496;-89
2023/03/25 20:20:12;;;;;;;0.43;0.43;;;;;;;;;;7394359;19;20179;-90
2023/03/25 20:22:39;;;;;;;1.27;0.70;;;;;;;;;;7394674;19;20145;-90
2023/03/25 20:25:07;;;;;;;0.33;0.33;;;;;;;;;;7394944;19;20141;-85
2023/03/25 20:27:34;;;;;;;4.63;0.83;;;;;;;;;;7411119;19;20145;-84
2023/03/25 20:30:01;;;;;;;0.30;0.30;;;;;;;;;;7407878;19;20165;-86
2023/03/25 20:32:28;;;;;;;0.20;0.20;;;;;;;;;;7411688;19;20129;-85
2023/03/25 20:35:06;;;;;;;0.40;0.40;;;;;;;;;;7406961;19;20132;-90
2023/03/25 20:37:35;;;;;;;1.50;1.20;;;;;;;;;;7410266;19;20121;-85
2023/03/25 20:40:04;;;;;;;11.70;0.53;;;;;;;;;;7396166;19;20156;-91
2023/03/25 20:42:30;;;;;;;0.40;0.40;;;;;;;;;;7393318;19;20133;-88
2023/03/25 20:44:57;;;;;;;0.30;0.30;;;;;;;;;;7391164;19;20133;-89
2023/03/25 20:47:24;;;;;;;0.40;0.40;;;;;;;;;;7395990;19;20136;-88
2023/03/25 20:49:51;;;;;;;0.30;0.30;;;;;;;;;;7391698;19;20156;-90
2023/03/25 20:52:18;;;;;;;0.30;0.30;;;;;;;;;;7390311;19;20141;-91
2023/03/25 20:54:45;;;;;;;0.30;0.30;;;;;;;;;;7391447;19;20140;-90
2023/03/25 20:57:11;;;;;;;0.30;0.30;;;;;;;;;;7392056;19;20182;-90
2023/03/25 20:59:38;;;;;;;0.30;0.30;;;;;;;;;;7390785;19;20173;-89
2023/03/25 21:02:05;;;;;;;0.30;0.30;;;;;;;;;;7394003;19;20141;-90
2023/03/25 21:04:32;;;;;;;0.20;0.20;;;;;;;;;;7391839;19;20613;-90
2023/03/25 21:06:58;;;;;;;0.30;0.30;;;;;;;;;;7392546;19;20179;-87
2023/03/25 21:09:25;;;;;;;0.30;0.30;;;;;;;;;;7390511;19;20157;-90
2023/03/25 21:11:51;;;;;;;0.30;0.30;;;;;;;;;;7391274;19;20142;-90
2023/03/25 21:14:18;;;;;;;0.40;0.40;;;;;;;;;;7389211;19;20137;-87
2023/03/25 21:16:46;;;;;;;0.30;0.30;;;;;;;;;;7392011;19;20916;-90
2023/03/25 21:19:13;;;;;;;0.30;0.30;;;;;;;;;;7391787;19;20198;-90
2023/03/25 21:21:39;;;;;;;0.60;0.60;;;;;;;;;;7392557;19;20165;-91
2023/03/25 21:24:07;;;;;;;0.30;0.30;;;;;;;;;;7395483;19;20141;-91
2023/03/25 21:26:34;;;;;;;0.50;0.50;;;;;;;;;;7388984;19;20141;-90
2023/03/25 21:29:00;;;;;;;0.40;0.40;;;;;;;;;;7399590;19;20173;-88
2023/03/25 21:31:28;;;;;;;0.30;0.30;;;;;;;;;;7402844;19;20169;-88
2023/03/25 21:33:55;;;;;;;0.50;0.50;;;;;;;;;;7404858;19;20137;-88
2023/03/25 21:36:27;;;;;;;0.23;0.23;;;;;;;;;;7402900;19;20149;-87
2023/03/25 21:38:59;;;;;;;0.30;0.30;;;;;;;;;;7403276;19;20195;-88
2023/03/25 21:41:28;;;;;;;0.30;0.30;;;;;;;;;;7402246;19;20561;-86
2023/03/25 21:43:55;;;;;;;0.30;0.30;;;;;;;;;;7400731;19;20158;-89
2023/03/25 21:46:23;;;;;;;0.30;0.30;;;;;;;;;;7403722;19;20125;-88
2023/03/25 21:48:50;;;;;;;0.50;0.50;;;;;;;;;;7415106;19;20164;-88
2023/03/25 21:51:16;;;;;;;0.30;0.30;;;;;;;;;;7425352;19;20157;-89
2023/03/25 21:53:44;;;;;;;0.37;0.37;;;;;;;;;;7421495;19;20173;-89
2023/03/25 21:56:16;;;;;;;0.50;0.50;;;;;;;;;;7419521;19;20148;-90
2023/03/25 21:58:44;;;;;;;0.40;0.40;;;;;;;;;;7407780;19;20172;-86
2023/03/25 22:01:14;;;;;;;0.30;0.30;;;;;;;;;;7404951;19;20149;-89
2023/03/25 22:03:45;;;;;;;0.40;0.40;;;;;;;;;;7402418;19;20169;-85
2023/03/25 22:06:17;;;;;;;0.30;0.30;;;;;;;;;;7411349;19;20141;-88
2023/03/25 22:08:44;;;;;;;0.30;0.30;;;;;;;;;;7408436;19;20179;-89
2023/03/25 22:11:13;;;;;;;0.20;0.20;;;;;;;;;;7405495;19;20161;-88
2023/03/25 22:13:40;;;;;;;0.53;0.43;;;;;;;;;;7410972;19;20153;-87
2023/03/25 22:16:08;;;;;;;0.30;0.30;;;;;;;;;;7407746;19;20137;-87
2023/03/25 22:18:35;;;;;;;0.40;0.40;;;;;;;;;;7409945;19;20177;-88
2023/03/25 22:21:12;;;;;;;0.40;0.40;;;;;;;;;;7410587;19;20141;-87
2023/03/25 22:23:39;;;;;;;0.43;0.43;;;;;;;;;;7408364;19;20136;-87
2023/03/25 22:26:08;;;;;;;0.20;0.20;;;;;;;;;;7410294;19;20144;-88
2023/03/25 22:28:35;;;;;;;0.30;0.30;;;;;;;;;;7408364;19;20179;-86
2023/03/25 22:31:29;;;;;;;0.20;0.20;;;;;;;;;;7407579;19;20169;-89
2023/03/25 22:34:01;;;;;;;0.30;0.30;;;;;;;;;;7404449;19;20181;-87
2023/03/25 22:36:30;;;;;;;0.30;0.30;;;;;;;;;;7407255;19;20144;-86
2023/03/25 22:38:57;;;;;;;0.30;0.30;;;;;;;;;;7408225;19;20609;-85
2023/03/25 22:41:24;;;;;;;0.30;0.30;;;;;;;;;;7409934;19;20550;-88
2023/03/25 22:43:51;;;;;;;0.50;0.40;;;;;;;;;;7408301;19;20151;-85
2023/03/25 22:46:18;;;;;;;0.30;0.30;;;;;;;;;;7410266;19;20141;-89
2023/03/25 22:48:45;;;;;;;0.30;0.30;;;;;;;;;;7408673;19;20159;-85
2023/03/25 22:51:14;;;;;;;0.30;0.30;;;;;;;;;;7408581;19;20222;-89
2023/03/25 22:53:41;;;;;;;0.30;0.30;;;;;;;;;;7411671;19;20133;-87
2023/03/25 22:56:09;;;;;;;0.30;0.30;;;;;;;;;;7406878;19;20141;-89
2023/03/25 22:58:37;;;;;;;0.20;0.20;;;;;;;;;;7400476;19;20209;-89
2023/03/25 23:01:06;;;;;;;0.43;0.43;;;;;;;;;;7403865;19;20148;-88
2023/03/25 23:03:33;;;;;;;0.30;0.30;;;;;;;;;;7402917;19;20148;-90
2023/03/25 23:06:03;;;;;;;0.60;0.60;;;;;;;;;;7402236;19;20143;-90
2023/03/25 23:08:33;;;;;;;0.20;0.20;;;;;;;;;;7403252;19;20168;-90
2023/03/25 23:11:07;;;;;;;0.30;0.30;;;;;;;;;;7399929;19;20144;-90
2023/03/25 23:13:34;;;;;;;0.30;0.30;;;;;;;;;;7400588;19;20161;-88
2023/03/25 23:16:04;;;;;;;0.20;0.20;;;;;;;;;;7399611;19;20137;-89
2023/03/25 23:18:31;;;;;;;0.30;0.30;;;;;;;;;;7397622;19;20625;-88
2023/03/25 23:20:58;;;;;;;0.30;0.30;;;;;;;;;;7396523;19;20154;-90
2023/03/25 23:23:25;;;;;;;0.30;0.30;;;;;;;;;;7402120;19;20141;-90
2023/03/25 23:26:23;;;;;;;0.33;0.33;;;;;;;;;;7403349;19;20553;-88
2023/03/25 23:28:50;;;;;;;0.30;0.30;;;;;;;;;;7402265;19;20507;-87
2023/03/25 23:31:21;;;;;;;0.30;0.30;;;;;;;;;;7404260;19;20605;-88
2023/03/25 23:33:49;;;;;;;0.30;0.30;;;;;;;;;;7401447;19;20486;-90
2023/03/25 23:36:18;;;;;;;0.37;0.37;;;;;;;;;;7399905;19;20183;-90
2023/03/25 23:38:45;;;;;;;0.30;0.30;;;;;;;;;;7401132;19;20157;-90
2023/03/25 23:41:14;;;;;;;0.20;0.20;;;;;;;;;;7401584;19;20141;-88
2023/03/25 23:43:41;;;;;;;0.30;0.30;;;;;;;;;;7398243;19;20503;-89
2023/03/25 23:46:10;;;;;;;0.30;0.30;;;;;;;;;;7402642;19;20145;-90
2023/03/25 23:48:40;;;;;;;0.20;0.20;;;;;;;;;;7402108;19;20157;-88
2023/03/25 23:51:09;;;;;;;1.00;0.97;;;;;;;;;;7400079;19;20175;-88
2023/03/25 23:53:38;;;;;;;0.30;0.30;;;;;;;;;;7402715;19;20144;-90
2023/03/25 23:56:05;;;;;;;0.30;0.30;;;;;;;;;;7400077;19;20601;-89
2023/03/25 23:58:32;;;;;;;0.20;0.20;;;;;;;;;;7401669;19;20672;-91
